sensor_id;sensor_type;location;lat;lon;timestamp;pressure;altitude;pressure_sealevel;temperature;humidity
50710;BME280;37033;49.994;21.992;2023-05-09T00:00:11;100448.05;;;2.27;72.39
50710;BME280;37033;49.994;21.992;2023-05-09T00:03:02;100444.30;;;2.22;72.24
50710;BME280;37033;49.994;21.992;2023-05-09T00:05:34;100444.71;;;2.18;72.43
50710;BME280;37033;49.994;21.992;2023-05-09T00:08:05;100438.75;;;2.11;72.46
50710;BME280;37033;49.994;21.992;2023-05-09T00:10:36;100436.95;;;2.07;72.40
50710;BME280;37033;49.994;21.992;2023-05-09T00:13:06;100432.70;;;2.01;72.70
50710;BME280;37033;49.994;21.992;2023-05-09T00:15:37;100436.70;;;1.97;72.41
50710;BME280;37033;49.994;21.992;2023-05-09T00:18:08;100433.27;;;1.94;72.64
50710;BME280;37033;49.994;21.992;2023-05-09T00:20:39;100429.99;;;1.89;72.53
50710;BME280;37033;49.994;21.992;2023-05-09T00:23:10;100434.06;;;1.85;72.71
50710;BME280;37033;49.994;21.992;2023-05-09T00:25:41;100434.70;;;1.79;72.70
50710;BME280;37033;49.994;21.992;2023-05-09T00:28:12;100432.91;;;1.73;72.72
50710;BME280;37033;49.994;21.992;2023-05-09T00:30:42;100428.34;;;1.69;72.87
50710;BME280;37033;49.994;21.992;2023-05-09T00:33:13;100428.61;;;1.63;72.85
50710;BME280;37033;49.994;21.992;2023-05-09T00:35:44;100428.60;;;1.58;72.99
50710;BME280;37033;49.994;21.992;2023-05-09T00:38:14;100427.98;;;1.51;72.93
50710;BME280;37033;49.994;21.992;2023-05-09T00:40:45;100428.30;;;1.47;73.11
50710;BME280;37033;49.994;21.992;2023-05-09T00:43:16;100427.79;;;1.41;73.17
50710;BME280;37033;49.994;21.992;2023-05-09T00:45:47;100433.98;;;1.36;73.26
50710;BME280;37033;49.994;21.992;2023-05-09T00:48:18;100432.75;;;1.32;73.34
50710;BME280;37033;49.994;21.992;2023-05-09T00:50:48;100432.54;;;1.28;73.49
50710;BME280;37033;49.994;21.992;2023-05-09T00:53:21;100426.95;;;1.19;73.69
50710;BME280;37033;49.994;21.992;2023-05-09T00:55:52;100424.25;;;1.09;73.88
50710;BME280;37033;49.994;21.992;2023-05-09T00:58:23;100424.73;;;0.99;73.81
50710;BME280;37033;49.994;21.992;2023-05-09T01:00:54;100423.06;;;0.95;74.11
50710;BME280;37033;49.994;21.992;2023-05-09T01:03:25;100422.42;;;0.95;74.30
50710;BME280;37033;49.994;21.992;2023-05-09T01:06:00;100422.26;;;0.95;74.32
50710;BME280;37033;49.994;21.992;2023-05-09T01:08:40;100422.48;;;0.94;74.40
50710;BME280;37033;49.994;21.992;2023-05-09T01:11:16;100421.24;;;0.94;74.37
50710;BME280;37033;49.994;21.992;2023-05-09T01:13:58;100421.91;;;0.93;74.49
50710;BME280;37033;49.994;21.992;2023-05-09T01:16:39;100423.31;;;0.92;74.58
50710;BME280;37033;49.994;21.992;2023-05-09T01:19:25;100422.34;;;0.89;74.61
50710;BME280;37033;49.994;21.992;2023-05-09T01:22:01;100422.77;;;0.86;74.50
50710;BME280;37033;49.994;21.992;2023-05-09T01:24:46;100424.01;;;0.85;74.33
50710;BME280;37033;49.994;21.992;2023-05-09T01:27:32;100425.20;;;0.82;74.50
50710;BME280;37033;49.994;21.992;2023-05-09T01:30:08;100427.04;;;0.77;74.39
50710;BME280;37033;49.994;21.992;2023-05-09T01:32:42;100427.82;;;0.75;74.42
50710;BME280;37033;49.994;21.992;2023-05-09T01:35:16;100430.63;;;0.72;74.31
50710;BME280;37033;49.994;21.992;2023-05-09T01:37:50;100423.84;;;0.68;74.32
50710;BME280;37033;49.994;21.992;2023-05-09T01:40:22;100426.63;;;0.66;74.57
50710;BME280;37033;49.994;21.992;2023-05-09T01:42:57;100426.00;;;0.61;74.30
50710;BME280;37033;49.994;21.992;2023-05-09T01:45:30;100421.65;;;0.57;74.50
50710;BME280;37033;49.994;21.992;2023-05-09T01:48:02;100416.93;;;0.55;74.54
50710;BME280;37033;49.994;21.992;2023-05-09T01:50:34;100418.73;;;0.53;74.65
50710;BME280;37033;49.994;21.992;2023-05-09T01:53:06;100414.84;;;0.51;74.60
50710;BME280;37033;49.994;21.992;2023-05-09T01:55:38;100412.10;;;0.48;74.56
50710;BME280;37033;49.994;21.992;2023-05-09T01:58:09;100413.38;;;0.46;74.52
50710;BME280;37033;49.994;21.992;2023-05-09T02:00:41;100412.58;;;0.43;74.89
50710;BME280;37033;49.994;21.992;2023-05-09T02:03:13;100411.98;;;0.40;74.87
50710;BME280;37033;49.994;21.992;2023-05-09T02:05:45;100411.63;;;0.38;74.92
50710;BME280;37033;49.994;21.992;2023-05-09T02:08:17;100408.09;;;0.36;74.82
50710;BME280;37033;49.994;21.992;2023-05-09T02:10:49;100408.25;;;0.34;74.90
50710;BME280;37033;49.994;21.992;2023-05-09T02:13:21;100411.55;;;0.32;74.91
50710;BME280;37033;49.994;21.992;2023-05-09T02:15:52;100409.58;;;0.28;74.84
50710;BME280;37033;49.994;21.992;2023-05-09T02:18:23;100411.48;;;0.25;74.96
50710;BME280;37033;49.994;21.992;2023-05-09T02:20:53;100410.03;;;0.24;74.92
50710;BME280;37033;49.994;21.992;2023-05-09T02:23:24;100411.23;;;0.22;75.08
50710;BME280;37033;49.994;21.992;2023-05-09T02:25:55;100411.19;;;0.19;75.02
50710;BME280;37033;49.994;21.992;2023-05-09T02:28:26;100409.59;;;0.15;75.21
50710;BME280;37033;49.994;21.992;2023-05-09T02:31:00;100409.02;;;0.12;75.08
50710;BME280;37033;49.994;21.992;2023-05-09T02:33:34;100408.58;;;0.11;75.15
50710;BME280;37033;49.994;21.992;2023-05-09T02:36:07;100407.93;;;0.08;75.22
50710;BME280;37033;49.994;21.992;2023-05-09T02:38:39;100407.94;;;0.06;75.21
50710;BME280;37033;49.994;21.992;2023-05-09T02:41:13;100406.08;;;0.04;75.22
50710;BME280;37033;49.994;21.992;2023-05-09T02:43:44;100407.23;;;0.01;75.23
50710;BME280;37033;49.994;21.992;2023-05-09T02:46:15;100405.45;;;-0.01;75.27
50710;BME280;37033;49.994;21.992;2023-05-09T02:48:45;100402.21;;;-0.03;75.38
50710;BME280;37033;49.994;21.992;2023-05-09T02:51:16;100403.64;;;-0.04;75.20
50710;BME280;37033;49.994;21.992;2023-05-09T02:53:47;100404.11;;;-0.06;75.34
50710;BME280;37033;49.994;21.992;2023-05-09T02:56:18;100404.83;;;-0.08;75.48
50710;BME280;37033;49.994;21.992;2023-05-09T02:58:49;100403.37;;;-0.09;75.59
50710;BME280;37033;49.994;21.992;2023-05-09T03:01:19;100405.48;;;-0.11;75.67
50710;BME280;37033;49.994;21.992;2023-05-09T03:03:51;100408.50;;;-0.12;75.68
50710;BME280;37033;49.994;21.992;2023-05-09T03:06:21;100405.84;;;-0.14;75.62
50710;BME280;37033;49.994;21.992;2023-05-09T03:08:52;100411.07;;;-0.13;75.76
50710;BME280;37033;49.994;21.992;2023-05-09T03:11:23;100408.51;;;-0.12;75.84
50710;BME280;37033;49.994;21.992;2023-05-09T03:13:53;100403.61;;;-0.13;76.10
50710;BME280;37033;49.994;21.992;2023-05-09T03:16:24;100405.12;;;-0.12;76.01
50710;BME280;37033;49.994;21.992;2023-05-09T03:18:55;100405.83;;;-0.12;76.02
50710;BME280;37033;49.994;21.992;2023-05-09T03:21:25;100405.13;;;-0.12;75.96
50710;BME280;37033;49.994;21.992;2023-05-09T03:23:56;100403.73;;;-0.13;76.13
50710;BME280;37033;49.994;21.992;2023-05-09T03:26:27;100404.46;;;-0.13;76.08
50710;BME280;37033;49.994;21.992;2023-05-09T03:28:57;100408.00;;;-0.13;76.13
50710;BME280;37033;49.994;21.992;2023-05-09T03:31:28;100409.65;;;-0.11;76.37
50710;BME280;37033;49.994;21.992;2023-05-09T03:33:59;100411.39;;;-0.11;76.21
50710;BME280;37033;49.994;21.992;2023-05-09T03:36:30;100415.19;;;-0.10;76.42
50710;BME280;37033;49.994;21.992;2023-05-09T03:39:01;100415.58;;;-0.08;76.34
50710;BME280;37033;49.994;21.992;2023-05-09T03:41:32;100419.27;;;-0.06;76.40
50710;BME280;37033;49.994;21.992;2023-05-09T03:44:05;100413.53;;;-0.04;76.76
50710;BME280;37033;49.994;21.992;2023-05-09T03:46:36;100418.95;;;-0.01;76.81
50710;BME280;37033;49.994;21.992;2023-05-09T03:49:07;100418.59;;;0.03;76.69
50710;BME280;37033;49.994;21.992;2023-05-09T03:51:40;100418.59;;;0.09;76.90
50710;BME280;37033;49.994;21.992;2023-05-09T03:54:11;100415.03;;;0.12;76.85
50710;BME280;37033;49.994;21.992;2023-05-09T03:56:42;100417.34;;;0.18;77.00
50710;BME280;37033;49.994;21.992;2023-05-09T03:59:13;100421.09;;;0.24;77.35
50710;BME280;37033;49.994;21.992;2023-05-09T04:01:43;100422.20;;;0.31;77.23
50710;BME280;37033;49.994;21.992;2023-05-09T04:04:14;100422.63;;;0.35;77.31
50710;BME280;37033;49.994;21.992;2023-05-09T04:06:46;100423.69;;;0.41;77.42
50710;BME280;37033;49.994;21.992;2023-05-09T04:09:16;100419.23;;;0.46;77.57
50710;BME280;37033;49.994;21.992;2023-05-09T04:11:47;100418.77;;;0.54;77.66
50710;BME280;37033;49.994;21.992;2023-05-09T04:14:18;100421.85;;;0.63;78.01
50710;BME280;37033;49.994;21.992;2023-05-09T04:16:49;100421.48;;;0.72;77.94
50710;BME280;37033;49.994;21.992;2023-05-09T04:19:20;100419.34;;;0.83;77.97
50710;BME280;37033;49.994;21.992;2023-05-09T04:21:50;100421.98;;;0.96;78.10
50710;BME280;37033;49.994;21.992;2023-05-09T04:24:24;100424.05;;;1.09;78.06
50710;BME280;37033;49.994;21.992;2023-05-09T04:26:55;100427.86;;;1.23;78.14
50710;BME280;37033;49.994;21.992;2023-05-09T04:29:26;100428.07;;;1.38;78.26
50710;BME280;37033;49.994;21.992;2023-05-09T04:31:59;100428.81;;;1.54;78.64
50710;BME280;37033;49.994;21.992;2023-05-09T04:34:33;100428.02;;;1.70;78.69
50710;BME280;37033;49.994;21.992;2023-05-09T04:37:06;100427.67;;;1.88;78.59
50710;BME280;37033;49.994;21.992;2023-05-09T04:39:37;100428.50;;;2.05;78.52
50710;BME280;37033;49.994;21.992;2023-05-09T04:42:08;100429.65;;;2.24;78.47
50710;BME280;37033;49.994;21.992;2023-05-09T04:44:39;100426.64;;;2.44;78.90
50710;BME280;37033;49.994;21.992;2023-05-09T04:47:09;100421.71;;;2.63;79.00
50710;BME280;37033;49.994;21.992;2023-05-09T04:49:40;100423.60;;;2.82;79.22
50710;BME280;37033;49.994;21.992;2023-05-09T04:52:11;100419.83;;;3.02;79.30
50710;BME280;37033;49.994;21.992;2023-05-09T04:54:42;100420.40;;;3.25;79.40
50710;BME280;37033;49.994;21.992;2023-05-09T04:57:13;100424.36;;;3.46;79.48
50710;BME280;37033;49.994;21.992;2023-05-09T04:59:44;100423.08;;;3.67;79.66
50710;BME280;37033;49.994;21.992;2023-05-09T05:02:14;100420.20;;;3.93;79.82
50710;BME280;37033;49.994;21.992;2023-05-09T05:04:45;100420.48;;;4.16;79.75
50710;BME280;37033;49.994;21.992;2023-05-09T05:07:19;100421.41;;;4.42;80.03
50710;BME280;37033;49.994;21.992;2023-05-09T05:09:50;100410.31;;;4.72;80.20
50710;BME280;37033;49.994;21.992;2023-05-09T05:12:20;100416.57;;;4.97;80.07
50710;BME280;37033;49.994;21.992;2023-05-09T05:14:51;100413.76;;;5.16;79.26
50710;BME280;37033;49.994;21.992;2023-05-09T05:17:22;100409.83;;;5.34;79.13
50710;BME280;37033;49.994;21.992;2023-05-09T05:19:53;100412.48;;;5.54;78.80
50710;BME280;37033;49.994;21.992;2023-05-09T05:22:24;100410.96;;;5.71;78.34
50710;BME280;37033;49.994;21.992;2023-05-09T05:24:55;100406.51;;;5.88;77.94
50710;BME280;37033;49.994;21.992;2023-05-09T05:27:25;100404.91;;;6.05;77.93
50710;BME280;37033;49.994;21.992;2023-05-09T05:29:56;100403.04;;;6.21;77.49
50710;BME280;37033;49.994;21.992;2023-05-09T05:32:27;100402.20;;;6.37;77.10
50710;BME280;37033;49.994;21.992;2023-05-09T05:34:58;100401.85;;;6.52;76.90
50710;BME280;37033;49.994;21.992;2023-05-09T05:37:30;100395.75;;;6.68;76.57
50710;BME280;37033;49.994;21.992;2023-05-09T05:40:01;100396.73;;;6.86;76.37
50710;BME280;37033;49.994;21.992;2023-05-09T05:42:32;100391.67;;;7.04;76.21
50710;BME280;37033;49.994;21.992;2023-05-09T05:45:03;100389.09;;;7.27;76.12
50710;BME280;37033;49.994;21.992;2023-05-09T05:47:35;100386.84;;;7.49;75.94
50710;BME280;37033;49.994;21.992;2023-05-09T05:50:07;100385.13;;;7.75;76.06
50710;BME280;37033;49.994;21.992;2023-05-09T05:52:40;100381.97;;;8.01;75.56
50710;BME280;37033;49.994;21.992;2023-05-09T05:55:11;100381.78;;;8.24;75.69
50710;BME280;37033;49.994;21.992;2023-05-09T05:57:42;100377.70;;;8.50;75.06
50710;BME280;37033;49.994;21.992;2023-05-09T06:00:18;100372.88;;;8.69;74.28
50710;BME280;37033;49.994;21.992;2023-05-09T06:02:49;100371.83;;;8.90;73.88
50710;BME280;37033;49.994;21.992;2023-05-09T06:05:20;100378.52;;;9.09;73.18
50710;BME280;37033;49.994;21.992;2023-05-09T06:07:51;100377.42;;;9.27;72.36
50710;BME280;37033;49.994;21.992;2023-05-09T06:10:24;100378.42;;;9.43;71.43
50710;BME280;37033;49.994;21.992;2023-05-09T06:12:55;100373.22;;;9.59;69.17
50710;BME280;37033;49.994;21.992;2023-05-09T06:15:26;100372.33;;;9.72;67.71
50710;BME280;37033;49.994;21.992;2023-05-09T06:17:57;100368.45;;;9.87;66.14
50710;BME280;37033;49.994;21.992;2023-05-09T06:20:31;100364.82;;;10.01;64.51
50710;BME280;37033;49.994;21.992;2023-05-09T06:23:02;100369.34;;;10.10;63.57
50710;BME280;37033;49.994;21.992;2023-05-09T06:25:33;100369.52;;;10.20;63.27
50710;BME280;37033;49.994;21.992;2023-05-09T06:28:05;100368.20;;;10.32;62.97
50710;BME280;37033;49.994;21.992;2023-05-09T06:30:36;100368.06;;;10.44;61.87
50710;BME280;37033;49.994;21.992;2023-05-09T06:33:07;100363.04;;;10.56;61.90
50710;BME280;37033;49.994;21.992;2023-05-09T06:35:37;100358.14;;;10.69;61.39
50710;BME280;37033;49.994;21.992;2023-05-09T06:38:08;100358.89;;;10.82;61.70
50710;BME280;37033;49.994;21.992;2023-05-09T06:40:42;100356.45;;;10.98;61.08
50710;BME280;37033;49.994;21.992;2023-05-09T06:43:15;100359.14;;;11.14;60.85
50710;BME280;37033;49.994;21.992;2023-05-09T06:45:46;100353.23;;;11.24;60.28
50710;BME280;37033;49.994;21.992;2023-05-09T06:48:22;100357.24;;;11.36;59.97
50710;BME280;37033;49.994;21.992;2023-05-09T06:50:53;100354.74;;;11.43;58.77
50710;BME280;37033;49.994;21.992;2023-05-09T06:53:24;100350.73;;;11.55;58.99
50710;BME280;37033;49.994;21.992;2023-05-09T06:55:58;100352.24;;;11.63;57.59
50710;BME280;37033;49.994;21.992;2023-05-09T06:58:31;100353.08;;;11.77;57.53
50710;BME280;37033;49.994;21.992;2023-05-09T07:01:02;100356.70;;;11.86;56.47
50710;BME280;37033;49.994;21.992;2023-05-09T07:03:33;100351.57;;;11.88;54.89
50710;BME280;37033;49.994;21.992;2023-05-09T07:06:05;100348.41;;;11.96;54.44
50710;BME280;37033;49.994;21.992;2023-05-09T07:08:38;100345.39;;;12.00;50.79
50710;BME280;37033;49.994;21.992;2023-05-09T07:11:09;100346.17;;;11.98;50.99
50710;BME280;37033;49.994;21.992;2023-05-09T07:13:42;100343.11;;;11.97;51.54
50710;BME280;37033;49.994;21.992;2023-05-09T07:16:13;100338.35;;;12.06;52.27
50710;BME280;37033;49.994;21.992;2023-05-09T07:18:46;100333.37;;;12.17;51.95
50710;BME280;37033;49.994;21.992;2023-05-09T07:21:16;100329.46;;;12.23;51.23
50710;BME280;37033;49.994;21.992;2023-05-09T07:23:48;100334.06;;;12.38;51.92
50710;BME280;37033;49.994;21.992;2023-05-09T07:26:18;100329.73;;;12.51;51.01
50710;BME280;37033;49.994;21.992;2023-05-09T07:28:49;100330.74;;;12.56;48.62
50710;BME280;37033;49.994;21.992;2023-05-09T07:31:20;100322.19;;;12.59;48.94
50710;BME280;37033;49.994;21.992;2023-05-09T07:33:53;100318.74;;;12.65;48.69
50710;BME280;37033;49.994;21.992;2023-05-09T07:36:24;100324.52;;;12.69;48.15
50710;BME280;37033;49.994;21.992;2023-05-09T07:38:57;100322.44;;;12.70;46.80
50710;BME280;37033;49.994;21.992;2023-05-09T07:41:31;100322.27;;;12.68;47.17
50710;BME280;37033;49.994;21.992;2023-05-09T07:44:02;100325.28;;;12.71;47.83
50710;BME280;37033;49.994;21.992;2023-05-09T07:46:32;100317.31;;;12.76;47.66
50710;BME280;37033;49.994;21.992;2023-05-09T07:49:03;100321.04;;;12.88;48.38
50710;BME280;37033;49.994;21.992;2023-05-09T07:51:37;100317.48;;;12.98;46.34
50710;BME280;37033;49.994;21.992;2023-05-09T07:54:08;100320.70;;;13.01;46.75
50710;BME280;37033;49.994;21.992;2023-05-09T07:56:42;100315.50;;;13.04;45.53
50710;BME280;37033;49.994;21.992;2023-05-09T07:59:13;100316.01;;;13.09;46.19
50710;BME280;37033;49.994;21.992;2023-05-09T08:01:44;100318.70;;;13.14;45.81
50710;BME280;37033;49.994;21.992;2023-05-09T08:04:14;100312.09;;;13.19;45.36
50710;BME280;37033;49.994;21.992;2023-05-09T08:06:45;100312.52;;;13.21;45.38
50710;BME280;37033;49.994;21.992;2023-05-09T08:09:16;100310.34;;;13.26;45.23
50710;BME280;37033;49.994;21.992;2023-05-09T08:11:47;100311.05;;;13.33;45.40
50710;BME280;37033;49.994;21.992;2023-05-09T08:14:18;100311.12;;;13.39;45.32
50710;BME280;37033;49.994;21.992;2023-05-09T08:16:49;100306.48;;;13.44;45.22
50710;BME280;37033;49.994;21.992;2023-05-09T08:19:19;100309.55;;;13.47;44.33
50710;BME280;37033;49.994;21.992;2023-05-09T08:21:52;100301.85;;;13.44;44.05
50710;BME280;37033;49.994;21.992;2023-05-09T08:24:24;100304.38;;;13.45;45.25
50710;BME280;37033;49.994;21.992;2023-05-09T08:26:57;100308.96;;;13.47;46.24
50710;BME280;37033;49.994;21.992;2023-05-09T08:29:30;100303.35;;;13.55;46.30
50710;BME280;37033;49.994;21.992;2023-05-09T08:32:06;100300.35;;;13.67;45.67
50710;BME280;37033;49.994;21.992;2023-05-09T08:34:39;100299.32;;;13.70;44.55
50710;BME280;37033;49.994;21.992;2023-05-09T08:37:10;100303.01;;;13.64;43.73
50710;BME280;37033;49.994;21.992;2023-05-09T08:39:41;100295.91;;;13.50;43.21
50710;BME280;37033;49.994;21.992;2023-05-09T08:42:15;100300.04;;;13.48;43.91
50710;BME280;37033;49.994;21.992;2023-05-09T08:44:52;100294.68;;;13.49;43.61
50710;BME280;37033;49.994;21.992;2023-05-09T08:47:23;100292.62;;;13.47;44.10
50710;BME280;37033;49.994;21.992;2023-05-09T08:49:55;100285.05;;;13.60;43.38
50710;BME280;37033;49.994;21.992;2023-05-09T08:52:30;100280.60;;;13.61;43.82
50710;BME280;37033;49.994;21.992;2023-05-09T08:55:02;100281.65;;;13.75;44.18
50710;BME280;37033;49.994;21.992;2023-05-09T08:57:35;100279.88;;;13.86;43.17
50710;BME280;37033;49.994;21.992;2023-05-09T09:00:15;100277.09;;;13.89;43.19
50710;BME280;37033;49.994;21.992;2023-05-09T09:02:51;100277.04;;;13.89;42.20
50710;BME280;37033;49.994;21.992;2023-05-09T09:05:23;100273.73;;;13.90;43.23
50710;BME280;37033;49.994;21.992;2023-05-09T09:07:55;100280.98;;;14.02;44.21
50710;BME280;37033;49.994;21.992;2023-05-09T09:10:31;100274.50;;;14.26;43.68
50710;BME280;37033;49.994;21.992;2023-05-09T09:13:03;100269.02;;;14.40;43.28
50710;BME280;37033;49.994;21.992;2023-05-09T09:15:37;100262.75;;;14.41;43.42
50710;BME280;37033;49.994;21.992;2023-05-09T09:18:15;100260.81;;;14.43;43.20
50710;BME280;37033;49.994;21.992;2023-05-09T09:20:55;100267.05;;;14.40;41.52
50710;BME280;37033;49.994;21.992;2023-05-09T09:23:29;100268.04;;;14.32;41.53
50710;BME280;37033;49.994;21.992;2023-05-09T09:26:03;100271.77;;;14.21;42.14
50710;BME280;37033;49.994;21.992;2023-05-09T09:28:37;100274.27;;;14.32;42.58
50710;BME280;37033;49.994;21.992;2023-05-09T09:31:21;100278.34;;;14.33;42.04
50710;BME280;37033;49.994;21.992;2023-05-09T09:33:52;100275.68;;;14.31;42.86
50710;BME280;37033;49.994;21.992;2023-05-09T09:36:31;100279.16;;;14.41;42.58
50710;BME280;37033;49.994;21.992;2023-05-09T09:39:02;100276.30;;;14.38;41.49
50710;BME280;37033;49.994;21.992;2023-05-09T09:41:41;100268.58;;;14.40;42.99
50710;BME280;37033;49.994;21.992;2023-05-09T09:44:18;100270.23;;;14.63;43.41
50710;BME280;37033;49.994;21.992;2023-05-09T09:46:51;100271.64;;;14.78;43.14
50710;BME280;37033;49.994;21.992;2023-05-09T09:49:23;100269.84;;;14.72;42.32
50710;BME280;37033;49.994;21.992;2023-05-09T09:51:54;100257.28;;;14.68;42.75
50710;BME280;37033;49.994;21.992;2023-05-09T09:54:29;100250.94;;;14.84;42.93
50710;BME280;37033;49.994;21.992;2023-05-09T09:57:01;100254.07;;;14.99;41.13
50710;BME280;37033;49.994;21.992;2023-05-09T09:59:32;100256.12;;;15.10;40.68
50710;BME280;37033;49.994;21.992;2023-05-09T10:02:05;100245.02;;;15.23;40.47
50710;BME280;37033;49.994;21.992;2023-05-09T10:04:37;100240.60;;;15.31;39.15
50710;BME280;37033;49.994;21.992;2023-05-09T10:07:10;100236.59;;;15.35;40.05
50710;BME280;37033;49.994;21.992;2023-05-09T10:09:44;100241.77;;;15.44;39.44
50710;BME280;37033;49.994;21.992;2023-05-09T10:12:22;100243.70;;;15.38;38.84
50710;BME280;37033;49.994;21.992;2023-05-09T10:14:53;100244.37;;;15.29;38.98
50710;BME280;37033;49.994;21.992;2023-05-09T10:17:30;100238.90;;;15.20;39.13
50710;BME280;37033;49.994;21.992;2023-05-09T10:20:06;100241.14;;;15.13;38.22
50710;BME280;37033;49.994;21.992;2023-05-09T10:22:39;100231.52;;;14.99;37.79
50710;BME280;37033;49.994;21.992;2023-05-09T10:25:19;100226.48;;;14.79;37.99
50710;BME280;37033;49.994;21.992;2023-05-09T10:27:55;100226.45;;;14.69;38.69
50710;BME280;37033;49.994;21.992;2023-05-09T10:30:34;100224.70;;;14.68;38.70
50710;BME280;37033;49.994;21.992;2023-05-09T10:33:09;100220.88;;;14.71;39.51
50710;BME280;37033;49.994;21.992;2023-05-09T10:35:45;100217.52;;;14.82;39.59
50710;BME280;37033;49.994;21.992;2023-05-09T10:38:16;100222.81;;;14.85;38.21
50710;BME280;37033;49.994;21.992;2023-05-09T10:40:48;100222.77;;;14.76;38.93
50710;BME280;37033;49.994;21.992;2023-05-09T10:43:19;100219.85;;;14.78;39.22
50710;BME280;37033;49.994;21.992;2023-05-09T10:45:57;100215.38;;;14.82;38.60
50710;BME280;37033;49.994;21.992;2023-05-09T10:48:31;100214.73;;;14.80;37.41
50710;BME280;37033;49.994;21.992;2023-05-09T10:51:04;100217.18;;;14.72;37.72
50710;BME280;37033;49.994;21.992;2023-05-09T10:53:43;100215.85;;;14.85;37.95
50710;BME280;37033;49.994;21.992;2023-05-09T10:56:29;100212.05;;;15.00;37.23
50710;BME280;37033;49.994;21.992;2023-05-09T10:59:04;100206.91;;;15.08;37.46
50710;BME280;37033;49.994;21.992;2023-05-09T11:01:35;100204.66;;;15.12;38.14
50710;BME280;37033;49.994;21.992;2023-05-09T11:04:11;100206.43;;;15.21;38.41
50710;BME280;37033;49.994;21.992;2023-05-09T11:06:47;100207.95;;;15.24;36.51
50710;BME280;37033;49.994;21.992;2023-05-09T11:09:26;100211.64;;;15.14;37.03
50710;BME280;37033;49.994;21.992;2023-05-09T11:12:09;100207.30;;;15.14;37.07
50710;BME280;37033;49.994;21.992;2023-05-09T11:14:42;100204.77;;;15.05;37.25
50710;BME280;37033;49.994;21.992;2023-05-09T11:17:28;100194.55;;;15.03;37.25
50710;BME280;37033;49.994;21.992;2023-05-09T11:20:02;100194.49;;;15.06;37.51
50710;BME280;37033;49.994;21.992;2023-05-09T11:22:47;100187.70;;;15.05;37.39
50710;BME280;37033;49.994;21.992;2023-05-09T11:25:26;100181.80;;;15.04;37.42
50710;BME280;37033;49.994;21.992;2023-05-09T11:28:02;100179.30;;;15.09;37.64
50710;BME280;37033;49.994;21.992;2023-05-09T11:30:41;100172.23;;;15.36;38.02
50710;BME280;37033;49.994;21.992;2023-05-09T11:33:24;100176.91;;;15.73;38.25
50710;BME280;37033;49.994;21.992;2023-05-09T11:36:17;100173.42;;;16.07;38.11
50710;BME280;37033;49.994;21.992;2023-05-09T11:38:48;100165.16;;;16.22;36.85
50710;BME280;37033;49.994;21.992;2023-05-09T11:41:34;100165.49;;;16.27;36.33
50710;BME280;37033;49.994;21.992;2023-05-09T11:44:14;100166.92;;;16.39;36.14
50710;BME280;37033;49.994;21.992;2023-05-09T11:46:47;100156.95;;;16.48;36.39
50710;BME280;37033;49.994;21.992;2023-05-09T11:49:21;100150.25;;;16.70;36.80
50710;BME280;37033;49.994;21.992;2023-05-09T11:51:52;100156.86;;;16.79;35.12
50710;BME280;37033;49.994;21.992;2023-05-09T11:54:25;100153.65;;;16.69;35.34
50710;BME280;37033;49.994;21.992;2023-05-09T11:56:57;100148.73;;;16.66;35.07
50710;BME280;37033;49.994;21.992;2023-05-09T11:59:29;100148.20;;;16.67;34.65
50710;BME280;37033;49.994;21.992;2023-05-09T12:02:03;100144.73;;;16.59;34.19
50710;BME280;37033;49.994;21.992;2023-05-09T12:04:37;100139.36;;;16.53;34.78
50710;BME280;37033;49.994;21.992;2023-05-09T12:07:14;100138.09;;;16.57;35.10
50710;BME280;37033;49.994;21.992;2023-05-09T12:09:49;100136.86;;;16.68;35.05
50710;BME280;37033;49.994;21.992;2023-05-09T12:12:21;100137.39;;;16.75;34.88
50710;BME280;37033;49.994;21.992;2023-05-09T12:14:51;100136.90;;;16.82;33.84
50710;BME280;37033;49.994;21.992;2023-05-09T12:17:23;100131.84;;;16.82;32.89
50710;BME280;37033;49.994;21.992;2023-05-09T12:19:58;100133.41;;;16.84;33.23
50710;BME280;37033;49.994;21.992;2023-05-09T12:22:33;100126.54;;;16.89;33.45
50710;BME280;37033;49.994;21.992;2023-05-09T12:25:08;100120.04;;;17.06;33.76
50710;BME280;37033;49.994;21.992;2023-05-09T12:27:42;100117.28;;;17.16;32.68
50710;BME280;37033;49.994;21.992;2023-05-09T12:30:14;100116.45;;;17.04;32.89
50710;BME280;37033;49.994;21.992;2023-05-09T12:32:47;100117.34;;;17.04;32.89
50710;BME280;37033;49.994;21.992;2023-05-09T12:35:21;100104.51;;;17.10;33.15
50710;BME280;37033;49.994;21.992;2023-05-09T12:37:59;100100.06;;;17.24;33.89
50710;BME280;37033;49.994;21.992;2023-05-09T12:40:32;100092.77;;;17.31;32.30
50710;BME280;37033;49.994;21.992;2023-05-09T12:43:03;100094.17;;;17.22;32.72
50710;BME280;37033;49.994;21.992;2023-05-09T12:45:34;100095.28;;;17.22;33.71
50710;BME280;37033;49.994;21.992;2023-05-09T12:48:09;100097.33;;;17.29;32.63
50710;BME280;37033;49.994;21.992;2023-05-09T12:50:45;100090.58;;;17.32;32.22
50710;BME280;37033;49.994;21.992;2023-05-09T12:53:23;100085.91;;;17.34;31.88
50710;BME280;37033;49.994;21.992;2023-05-09T12:56:01;100082.33;;;17.44;32.21
50710;BME280;37033;49.994;21.992;2023-05-09T12:58:35;100078.30;;;17.39;31.48
50710;BME280;37033;49.994;21.992;2023-05-09T13:01:06;100077.41;;;17.36;31.95
50710;BME280;37033;49.994;21.992;2023-05-09T13:03:42;100069.88;;;17.48;32.06
50710;BME280;37033;49.994;21.992;2023-05-09T13:06:19;100067.27;;;17.48;31.28
50710;BME280;37033;49.994;21.992;2023-05-09T13:09:02;100066.17;;;17.29;30.70
50710;BME280;37033;49.994;21.992;2023-05-09T13:11:35;100063.27;;;17.19;31.26